sensor_id;sensor_type;location;lat;lon;timestamp;pressure;altitude;pressure_sealevel;temperature;humidity
73821;BME280;62150;43.582;1.456;2023-08-12T03:50:33;100329.06;;;26.56;100.00
73821;BME280;62150;43.582;1.456;2023-08-12T03:53:01;100326.19;;;26.84;100.00
73821;BME280;62150;43.582;1.456;2023-08-12T03:55:31;100330.00;;;26.89;100.00
73821;BME280;62150;43.582;1.456;2023-08-12T03:57:59;100330.97;;;26.88;100.00
73821;BME280;62150;43.582;1.456;2023-08-12T04:00:28;100340.47;;;26.73;100.00
73821;BME280;62150;43.582;1.456;2023-08-12T04:02:55;100344.81;;;26.48;100.00
73821;BME280;62150;43.582;1.456;2023-08-12T04:05:23;100337.84;;;27.15;100.00
73821;BME280;62150;43.582;1.456;2023-08-12T04:07:52;100334.22;;;27.16;100.00
73821;BME280;62150;43.582;1.456;2023-08-12T04:10:19;100333.88;;;27.19;100.00
73821;BME280;62150;43.582;1.456;2023-08-12T04:12:47;100339.19;;;27.44;100.00
73821;BME280;62150;43.582;1.456;2023-08-12T04:15:14;100343.00;;;27.49;100.00
73821;BME280;62150;43.582;1.456;2023-08-12T04:17:42;100349.69;;;27.11;100.00
73821;BME280;62150;43.582;1.456;2023-08-12T04:20:10;100354.78;;;27.04;100.00
73821;BME280;62150;43.582;1.456;2023-08-12T04:22:37;100358.59;;;27.02;100.00
73821;BME280;62150;43.582;1.456;2023-08-12T04:25:07;100364.59;;;26.52;100.00
73821;BME280;62150;43.582;1.456;2023-08-12T04:27:35;100358.50;;;26.86;100.00
73821;BME280;62150;43.582;1.456;2023-08-12T04:30:02;100352.84;;;27.23;100.00
73821;BME280;62150;43.582;1.456;2023-08-12T04:32:30;100357.91;;;27.00;100.00
73821;BME280;62150;43.582;1.456;2023-08-12T04:34:58;100355.78;;;27.12;100.00
73821;BME280;62150;43.582;1.456;2023-08-12T04:37:25;100353.63;;;27.07;100.00
73821;BME280;62150;43.582;1.456;2023-08-12T04:39:54;100354.63;;;27.06;100.00
73821;BME280;62150;43.582;1.456;2023-08-12T04:42:23;100359.91;;;27.14;100.00
73821;BME280;62150;43.582;1.456;2023-08-12T04:44:50;100366.91;;;26.89;100.00
73821;BME280;62150;43.582;1.456;2023-08-12T04:47:18;100370.34;;;26.82;100.00
73821;BME280;62150;43.582;1.456;2023-08-12T04:49:45;100374.44;;;27.18;100.00
73821;BME280;62150;43.582;1.456;2023-08-12T04:52:14;100376.53;;;26.98;100.00
73821;BME280;62150;43.582;1.456;2023-08-12T04:54:42;100362.38;;;26.74;100.00
73821;BME280;62150;43.582;1.456;2023-08-12T04:57:10;100357.16;;;26.82;100.00
73821;BME280;62150;43.582;1.456;2023-08-12T04:59:39;100364.13;;;26.91;100.00
73821;BME280;62150;43.582;1.456;2023-08-12T05:02:06;100358.25;;;26.97;100.00
73821;BME280;62150;43.582;1.456;2023-08-12T05:04:34;100368.06;;;26.87;100.00
73821;BME280;62150;43.582;1.456;2023-08-12T05:07:01;100375.03;;;27.04;100.00
73821;BME280;62150;43.582;1.456;2023-08-12T05:09:29;100372.25;;;27.06;100.00
73821;BME280;62150;43.582;1.456;2023-08-12T05:11:56;100375.44;;;27.17;100.00
73821;BME280;62150;43.582;1.456;2023-08-12T05:14:24;100375.59;;;26.82;100.00
73821;BME280;62150;43.582;1.456;2023-08-12T05:16:53;100376.97;;;26.94;100.00
73821;BME280;62150;43.582;1.456;2023-08-12T05:19:20;100383.22;;;26.51;100.00
73821;BME280;62150;43.582;1.456;2023-08-12T05:21:48;100385.59;;;26.62;100.00
73821;BME280;62150;43.582;1.456;2023-08-12T05:24:15;100392.69;;;26.95;100.00
73821;BME280;62150;43.582;1.456;2023-08-12T05:26:43;100391.06;;;27.11;100.00
73821;BME280;62150;43.582;1.456;2023-08-12T05:29:11;100393.84;;;27.09;100.00
73821;BME280;62150;43.582;1.456;2023-08-12T05:31:38;100403.22;;;26.95;100.00
73821;BME280;62150;43.582;1.456;2023-08-12T05:34:07;100401.97;;;27.16;100.00
73821;BME280;62150;43.582;1.456;2023-08-12T05:36:35;100405.25;;;27.18;100.00
73821;BME280;62150;43.582;1.456;2023-08-12T05:39:03;100404.84;;;27.47;100.00
73821;BME280;62150;43.582;1.456;2023-08-12T05:41:30;100404.84;;;26.62;100.00
73821;BME280;62150;43.582;1.456;2023-08-12T05:43:58;100415.47;;;26.79;100.00
73821;BME280;62150;43.582;1.456;2023-08-12T05:46:25;100414.66;;;26.09;100.00
73821;BME280;62150;43.582;1.456;2023-08-12T05:48:53;100418.09;;;26.79;100.00
73821;BME280;62150;43.582;1.456;2023-08-12T05:51:22;100412.94;;;27.03;100.00
73821;BME280;62150;43.582;1.456;2023-08-12T05:53:49;100405.72;;;27.05;100.00
73821;BME280;62150;43.582;1.456;2023-08-12T05:56:17;100412.88;;;26.87;100.00
73821;BME280;62150;43.582;1.456;2023-08-12T05:58:44;100423.78;;;26.58;100.00
73821;BME280;62150;43.582;1.456;2023-08-12T06:01:12;100422.59;;;26.86;100.00
73821;BME280;62150;43.582;1.456;2023-08-12T06:03:39;100427.34;;;26.49;100.00
73821;BME280;62150;43.582;1.456;2023-08-12T06:06:07;100426.00;;;26.27;100.00
73821;BME280;62150;43.582;1.456;2023-08-12T06:08:36;100421.44;;;26.55;100.00
73821;BME280;62150;43.582;1.456;2023-08-12T06:11:03;100416.59;;;27.02;100.00
73821;BME280;62150;43.582;1.456;2023-08-12T06:13:31;100417.13;;;27.14;100.00
73821;BME280;62150;43.582;1.456;2023-08-12T06:15:58;100417.72;;;26.65;100.00
